createdAt,value
2019-01-20T00:00:31.100Z,-2.20
2019-01-20T00:05:22.084Z,-2.40
2019-01-20T00:10:13.034Z,-2.70
2019-01-20T00:15:04.881Z,-2.90
2019-01-20T00:19:55.773Z,-3.00
2019-01-20T00:24:46.713Z,-3.20
2019-01-20T00:29:37.634Z,-3.20
2019-01-20T00:34:28.552Z,-3.30
2019-01-20T00:39:19.472Z,-3.40
2019-01-20T00:44:10.389Z,-3.50
2019-01-20T00:49:01.276Z,-3.50
2019-01-20T00:53:52.318Z,-3.60
2019-01-20T00:58:43.248Z,-3.60
2019-01-20T01:03:34.169Z,-3.10
2019-01-20T01:08:25.062Z,-2.60
2019-01-20T01:13:16.035Z,-2.70
2019-01-20T01:18:07.741Z,-3.10
2019-01-20T01:22:58.658Z,-3.20
2019-01-20T01:27:49.564Z,-3.30
2019-01-20T01:32:40.525Z,-3.50
2019-01-20T01:37:31.427Z,-3.60
2019-01-20T01:42:22.334Z,-3.60
2019-01-20T01:47:13.263Z,-3.70
2019-01-20T01:52:04.175Z,-3.80
2019-01-20T01:56:55.113Z,-3.90
2019-01-20T02:01:46.147Z,-3.90
2019-01-20T02:06:37.868Z,-3.60
2019-01-20T02:11:28.757Z,-3.60
2019-01-20T02:16:19.703Z,-3.00
2019-01-20T02:21:10.603Z,-3.00
2019-01-20T02:26:01.493Z,-3.20
2019-01-20T02:30:52.411Z,-3.50
2019-01-20T02:35:43.379Z,-3.70
2019-01-20T02:40:35.772Z,-4.00
2019-01-20T02:45:26.679Z,-4.00
2019-01-20T02:50:18.364Z,-4.20
2019-01-20T02:55:09.253Z,-4.20
2019-01-20T03:00:00.226Z,-4.30
2019-01-20T03:04:51.140Z,-4.30
2019-01-20T03:09:42.065Z,-4.40
2019-01-20T03:14:32.983Z,-4.40
2019-01-20T03:19:23.905Z,-4.30
2019-01-20T03:24:14.816Z,-3.80
2019-01-20T03:29:05.741Z,-3.40
2019-01-20T03:33:56.642Z,-3.50
2019-01-20T03:38:47.551Z,-3.70
2019-01-20T03:43:38.502Z,-4.00
2019-01-20T03:48:29.407Z,-4.10
2019-01-20T03:53:20.595Z,-4.30
2019-01-20T03:58:11.498Z,-4.40
2019-01-20T04:03:02.408Z,-4.50
2019-01-20T04:07:54.105Z,-4.70
2019-01-20T04:12:45.009Z,-4.70
2019-01-20T04:17:35.954Z,-4.70
2019-01-20T04:22:26.968Z,-4.80
2019-01-20T04:27:17.853Z,-4.80
2019-01-20T04:32:08.774Z,-4.80
2019-01-20T04:36:59.675Z,-4.20
2019-01-20T04:41:50.605Z,-3.70
2019-01-20T04:46:41.545Z,-3.90
2019-01-20T04:51:32.438Z,-4.10
2019-01-20T04:56:23.355Z,-4.40
2019-01-20T05:01:14.324Z,-4.60
2019-01-20T05:06:05.325Z,-4.70
2019-01-20T05:10:56.223Z,-4.80
2019-01-20T05:15:47.170Z,-4.90
2019-01-20T05:20:38.058Z,-5.00
2019-01-20T05:25:28.998Z,-5.10
2019-01-20T05:30:20.629Z,-5.20
2019-01-20T05:35:11.538Z,-5.20
2019-01-20T05:40:02.433Z,-5.30
2019-01-20T05:44:53.334Z,-5.30
2019-01-20T05:49:44.986Z,-4.30
2019-01-20T05:54:35.952Z,-4.30
2019-01-20T05:59:26.846Z,-4.20
2019-01-20T06:04:17.763Z,-4.40
2019-01-20T06:09:08.665Z,-4.60
2019-01-20T06:13:59.631Z,-4.80
2019-01-20T06:18:50.556Z,-5.00
2019-01-20T06:23:41.446Z,-5.10
2019-01-20T06:28:32.352Z,-5.20
2019-01-20T06:33:23.257Z,-5.30
2019-01-20T06:38:14.251Z,-5.40
2019-01-20T06:43:05.960Z,-5.50
2019-01-20T06:47:56.864Z,-5.50
2019-01-20T06:52:47.795Z,-5.50
2019-01-20T06:57:38.696Z,-5.60
2019-01-20T07:02:29.619Z,-5.60
2019-01-20T07:07:20.547Z,-5.20
2019-01-20T07:12:11.437Z,-4.60
2019-01-20T07:17:02.348Z,-4.50
2019-01-20T07:21:53.263Z,-4.60
2019-01-20T07:26:44.171Z,-4.90
2019-01-20T07:31:35.815Z,-5.30
2019-01-20T07:36:26.731Z,-5.30
2019-01-20T07:41:17.663Z,-5.40
2019-01-20T07:46:08.563Z,-5.50
2019-01-20T07:50:59.521Z,-5.60
2019-01-20T07:55:51.020Z,-5.60
2019-01-20T08:00:41.350Z,-5.70
2019-01-20T08:05:32.278Z,-5.70
2019-01-20T08:10:23.167Z,-5.70
2019-01-20T08:15:14.121Z,-5.70
2019-01-20T08:20:05.002Z,-5.70
2019-01-20T08:24:55.979Z,-5.60
2019-01-20T08:29:47.618Z,-4.40
2019-01-20T08:34:38.523Z,-4.50
2019-01-20T08:39:29.443Z,-4.30
2019-01-20T08:44:20.351Z,-4.50
2019-01-20T08:49:11.281Z,-4.60
2019-01-20T08:54:02.168Z,-4.70
2019-01-20T08:58:53.088Z,-4.80
2019-01-20T09:03:44.025Z,-4.80
2019-01-20T09:08:34.964Z,-4.80
2019-01-20T09:13:25.876Z,-4.70
2019-01-20T09:18:16.787Z,-4.70
2019-01-20T09:23:07.718Z,-4.60
2019-01-20T09:27:58.626Z,-4.50
2019-01-20T09:32:49.535Z,-4.40
2019-01-20T09:37:40.480Z,-4.30
2019-01-20T09:42:31.481Z,-4.20
2019-01-20T09:47:22.376Z,-3.60
2019-01-20T09:52:13.318Z,-3.00
2019-01-20T09:57:04.265Z,-2.90
2019-01-20T10:01:55.262Z,-3.00
2019-01-20T10:06:46.172Z,-3.10
2019-01-20T10:11:37.112Z,-3.10
2019-01-20T10:16:28.125Z,-3.10
2019-01-20T10:21:19.154Z,-3.10
2019-01-20T10:26:10.079Z,-3.00
2019-01-20T10:31:01.073Z,-3.00
2019-01-20T10:35:51.980Z,-2.90
2019-01-20T10:40:42.937Z,-2.80
2019-01-20T10:45:33.947Z,-2.70
2019-01-20T10:50:24.859Z,-2.60
2019-01-20T10:55:15.770Z,-2.50
2019-01-20T11:00:07.702Z,-1.90
2019-01-20T11:04:58.686Z,-1.30
2019-01-20T11:09:50.367Z,-1.10
2019-01-20T11:14:41.315Z,-1.10
2019-01-20T11:19:32.314Z,-0.90
2019-01-20T11:24:23.243Z,-0.50
2019-01-20T11:29:14.258Z,-0.10
2019-01-20T11:34:05.179Z,0.40
2019-01-20T11:38:56.084Z,1.00
2019-01-20T11:43:47.076Z,1.50
2019-01-20T11:48:38.039Z,2.10
2019-01-20T11:53:29.086Z,2.70
2019-01-20T11:58:20.729Z,3.90
2019-01-20T12:03:12.371Z,4.80
2019-01-20T12:08:04.065Z,5.40
2019-01-20T12:13:06.003Z,5.40
2019-01-20T12:17:56.911Z,5.80
2019-01-20T12:22:47.820Z,6.10
2019-01-20T12:27:38.731Z,6.50
2019-01-20T12:32:30.374Z,7.20
2019-01-20T12:37:22.020Z,7.50
2019-01-20T12:42:12.914Z,7.50
2019-01-20T12:47:04.562Z,8.20
2019-01-20T12:51:56.206Z,8.70
2019-01-20T12:56:47.382Z,8.60
2019-01-20T13:01:38.875Z,9.10
2019-01-20T13:06:29.884Z,9.10
2019-01-20T13:11:20.801Z,9.30
2019-01-20T13:16:17.032Z,9.30
2019-01-20T13:21:13.054Z,9.30
2019-01-20T13:26:04.364Z,9.10
2019-01-20T13:30:55.291Z,9.00
2019-01-20T13:35:46.194Z,8.90
2019-01-20T13:40:41.666Z,8.90
2019-01-20T13:45:33.332Z,8.40
2019-01-20T13:50:24.765Z,8.40
2019-01-20T13:55:16.778Z,8.10
2019-01-20T14:00:10.382Z,7.40
2019-01-20T14:05:01.341Z,7.40
2019-01-20T14:09:52.234Z,7.10
2019-01-20T14:14:43.126Z,7.10
2019-01-20T14:19:34.030Z,7.00
2019-01-20T14:24:25.669Z,6.30
2019-01-20T14:29:17.357Z,6.00
2019-01-20T14:34:08.250Z,6.00
2019-01-20T14:38:59.156Z,5.70
2019-01-20T14:43:50.053Z,5.40
2019-01-20T14:48:41.703Z,5.10
2019-01-20T14:53:32.615Z,5.10
2019-01-20T14:58:24.268Z,4.80
2019-01-20T15:03:15.229Z,4.80
2019-01-20T15:08:06.116Z,4.40
2019-01-20T15:12:57.031Z,4.00
2019-01-20T15:17:47.939Z,3.70
2019-01-20T15:22:38.839Z,3.30
2019-01-20T15:27:30.492Z,2.90
2019-01-20T15:32:21.462Z,2.90
2019-01-20T15:37:12.363Z,3.20
2019-01-20T15:42:03.295Z,3.10
2019-01-20T15:46:54.236Z,2.70
2019-01-20T15:51:45.155Z,2.30
2019-01-20T15:56:36.149Z,2.00
2019-01-20T16:01:27.066Z,1.70
2019-01-20T16:06:17.962Z,1.50
2019-01-20T16:11:08.871Z,1.20
2019-01-20T16:15:59.786Z,1.00
2019-01-20T16:20:50.691Z,1.30
2019-01-20T16:25:42.379Z,1.30
2019-01-20T16:30:33.264Z,1.30
2019-01-20T16:35:24.230Z,0.90
2019-01-20T16:40:15.143Z,0.70
2019-01-20T16:45:06.046Z,0.40
2019-01-20T16:49:56.941Z,0.20
2019-01-20T16:54:47.837Z,0.00
2019-01-20T16:59:39.499Z,-0.30
2019-01-20T17:04:30.412Z,-0.30
2019-01-20T17:09:21.316Z,0.00
2019-01-20T17:14:12.223Z,0.50
2019-01-20T17:19:03.866Z,0.10
2019-01-20T17:23:55.531Z,-0.20
2019-01-20T17:28:46.431Z,-0.20
2019-01-20T17:33:37.385Z,-0.40
2019-01-20T17:38:28.283Z,-0.50
2019-01-20T17:43:19.191Z,-0.60
2019-01-20T17:48:10.090Z,-0.70
2019-01-20T17:53:01.786Z,-0.80
2019-01-20T17:57:52.687Z,-0.90
2019-01-20T18:02:43.619Z,-0.40
2019-01-20T18:07:34.521Z,0.10
2019-01-20T18:12:25.427Z,0.00
2019-01-20T18:17:16.320Z,-0.20
2019-01-20T18:22:07.958Z,-0.50
2019-01-20T18:26:59.646Z,-0.50
2019-01-20T18:31:50.557Z,-0.60
2019-01-20T18:36:41.463Z,-0.60
2019-01-20T18:41:32.367Z,-0.70
2019-01-20T18:46:23.284Z,-0.70
2019-01-20T18:51:14.181Z,-0.80
2019-01-20T18:56:05.817Z,0.10
2019-01-20T19:00:57.471Z,0.10
2019-01-20T19:05:48.374Z,0.10
2019-01-20T19:10:40.093Z,-0.20
2019-01-20T19:15:30.987Z,-0.30
2019-01-20T19:20:21.893Z,-0.40
2019-01-20T19:25:12.822Z,-0.50
2019-01-20T19:30:13.337Z,-0.60
2019-01-20T19:35:04.277Z,-0.60
2019-01-20T19:39:55.184Z,-0.70
2019-01-20T19:44:46.115Z,-0.70
2019-01-20T19:49:37.074Z,-0.70
2019-01-20T19:54:28.772Z,0.00
2019-01-20T19:59:19.966Z,0.00
2019-01-20T20:04:10.930Z,-0.10
2019-01-20T20:09:01.840Z,-0.30
2019-01-20T20:13:52.857Z,-0.40
2019-01-20T20:18:43.786Z,-0.50
2019-01-20T20:23:34.698Z,-0.60
2019-01-20T20:28:25.632Z,-0.70
2019-01-20T20:33:17.081Z,-0.80
2019-01-20T20:38:09.157Z,-0.90
2019-01-20T20:43:01.498Z,-0.90
2019-01-20T20:47:52.638Z,-0.70
2019-01-20T20:52:46.163Z,-0.20
2019-01-20T20:57:35.551Z,-0.10
2019-01-20T21:02:27.294Z,-0.40
2019-01-20T21:07:18.298Z,-0.40
2019-01-20T21:12:09.323Z,-0.50
2019-01-20T21:17:00.368Z,-0.70
2019-01-20T21:21:52.223Z,-0.80
2019-01-20T21:26:44.611Z,-0.90
2019-01-20T21:31:34.946Z,-0.90
2019-01-20T21:36:25.856Z,-1.00
2019-01-20T21:41:16.781Z,-1.00
2019-01-20T21:46:08.601Z,-0.10
2019-01-20T21:50:59.530Z,-0.20
2019-01-20T21:55:50.464Z,-0.20
2019-01-20T22:00:41.474Z,-0.40
2019-01-20T22:05:32.384Z,-0.60
2019-01-20T22:10:23.302Z,-0.70
2019-01-20T22:15:14.229Z,-0.80
2019-01-20T22:20:06.078Z,-0.90
2019-01-20T22:24:57.099Z,-1.00
2019-01-20T22:29:48.031Z,-1.00
2019-01-20T22:34:39.272Z,-1.10
2019-01-20T22:39:30.970Z,-0.70
2019-01-20T22:44:21.907Z,-0.70
2019-01-20T22:49:13.643Z,-0.40
2019-01-20T22:54:04.668Z,-0.40
2019-01-20T22:58:55.675Z,-0.60
2019-01-20T23:03:46.606Z,-0.80
2019-01-20T23:08:37.628Z,-0.90
2019-01-20T23:13:28.635Z,-1.10
2019-01-20T23:18:19.579Z,-1.10
2019-01-20T23:23:11.227Z,-1.30
2019-01-20T23:28:02.870Z,-1.30
2019-01-20T23:32:53.845Z,-1.30
2019-01-20T23:37:44.771Z,-1.30
2019-01-20T23:42:35.664Z,-0.80
2019-01-20T23:47:26.599Z,-0.40
2019-01-20T23:52:17.497Z,-0.50
2019-01-20T23:57:08.434Z,-0.70
